sensor_id;sensor_type;location;lat;lon;timestamp;temperature;humidity
13928;DHT22;7036;50.834;4.718;2022-11-15T00:02:10;20.20;55.30
13928;DHT22;7036;50.834;4.718;2022-11-15T00:04:38;20.20;55.30
13928;DHT22;7036;50.834;4.718;2022-11-15T00:07:06;20.20;55.30
13928;DHT22;7036;50.834;4.718;2022-11-15T00:09:34;20.10;55.30
13928;DHT22;7036;50.834;4.718;2022-11-15T00:12:02;20.10;55.30
13928;DHT22;7036;50.834;4.718;2022-11-15T00:14:30;20.20;55.40
13928;DHT22;7036;50.834;4.718;2022-11-15T00:16:58;20.20;55.40
13928;DHT22;7036;50.834;4.718;2022-11-15T00:19:26;20.20;55.30
13928;DHT22;7036;50.834;4.718;2022-11-15T00:21:53;20.20;55.30
13928;DHT22;7036;50.834;4.718;2022-11-15T00:24:22;20.10;55.30
13928;DHT22;7036;50.834;4.718;2022-11-15T00:26:49;20.10;55.20
13928;DHT22;7036;50.834;4.718;2022-11-15T00:29:16;20.10;55.30
13928;DHT22;7036;50.834;4.718;2022-11-15T00:31:43;20.10;55.40
13928;DHT22;7036;50.834;4.718;2022-11-15T00:34:10;20.10;55.40
13928;DHT22;7036;50.834;4.718;2022-11-15T00:36:39;20.10;55.50
13928;DHT22;7036;50.834;4.718;2022-11-15T00:39:07;20.10;55.40
13928;DHT22;7036;50.834;4.718;2022-11-15T00:41:34;20.10;55.40
13928;DHT22;7036;50.834;4.718;2022-11-15T00:44:01;20.10;55.40
13928;DHT22;7036;50.834;4.718;2022-11-15T00:46:29;20.00;55.60
13928;DHT22;7036;50.834;4.718;2022-11-15T00:48:56;20.00;55.50
13928;DHT22;7036;50.834;4.718;2022-11-15T00:51:24;20.00;55.70
13928;DHT22;7036;50.834;4.718;2022-11-15T00:53:52;20.00;55.70
13928;DHT22;7036;50.834;4.718;2022-11-15T00:56:19;20.00;55.60
13928;DHT22;7036;50.834;4.718;2022-11-15T00:58:47;20.00;55.70
13928;DHT22;7036;50.834;4.718;2022-11-15T01:01:14;20.00;55.60
13928;DHT22;7036;50.834;4.718;2022-11-15T01:03:41;20.00;55.60
13928;DHT22;7036;50.834;4.718;2022-11-15T01:06:09;20.10;55.60
13928;DHT22;7036;50.834;4.718;2022-11-15T01:08:39;20.00;55.80
13928;DHT22;7036;50.834;4.718;2022-11-15T01:11:08;20.00;55.80
13928;DHT22;7036;50.834;4.718;2022-11-15T01:13:34;20.00;55.70
13928;DHT22;7036;50.834;4.718;2022-11-15T01:16:07;20.00;55.90
13928;DHT22;7036;50.834;4.718;2022-11-15T01:18:32;20.00;55.80
13928;DHT22;7036;50.834;4.718;2022-11-15T01:21:03;20.00;56.00
13928;DHT22;7036;50.834;4.718;2022-11-15T01:23:28;20.00;56.00
13928;DHT22;7036;50.834;4.718;2022-11-15T01:25:59;20.00;55.90
13928;DHT22;7036;50.834;4.718;2022-11-15T01:28:25;20.00;55.80
13928;DHT22;7036;50.834;4.718;2022-11-15T01:30:53;20.00;56.00
13928;DHT22;7036;50.834;4.718;2022-11-15T01:33:20;20.00;55.80
13928;DHT22;7036;50.834;4.718;2022-11-15T01:35:48;20.00;56.10
13928;DHT22;7036;50.834;4.718;2022-11-15T01:38:17;19.90;56.00
13928;DHT22;7036;50.834;4.718;2022-11-15T01:40:44;19.90;55.90
13928;DHT22;7036;50.834;4.718;2022-11-15T01:43:25;19.90;56.00
13928;DHT22;7036;50.834;4.718;2022-11-15T01:46:04;19.90;55.90
13928;DHT22;7036;50.834;4.718;2022-11-15T01:48:31;19.90;56.00
13928;DHT22;7036;50.834;4.718;2022-11-15T01:50:57;19.90;56.10
13928;DHT22;7036;50.834;4.718;2022-11-15T01:53:26;19.90;56.10
13928;DHT22;7036;50.834;4.718;2022-11-15T01:55:52;19.90;56.00
13928;DHT22;7036;50.834;4.718;2022-11-15T01:58:20;19.90;56.10
13928;DHT22;7036;50.834;4.718;2022-11-15T02:00:48;19.90;56.00
13928;DHT22;7036;50.834;4.718;2022-11-15T02:03:16;19.90;56.20
13928;DHT22;7036;50.834;4.718;2022-11-15T02:05:43;19.90;56.20
13928;DHT22;7036;50.834;4.718;2022-11-15T02:08:11;19.90;56.20
13928;DHT22;7036;50.834;4.718;2022-11-15T02:10:39;19.90;56.20
13928;DHT22;7036;50.834;4.718;2022-11-15T02:13:06;19.90;56.00
13928;DHT22;7036;50.834;4.718;2022-11-15T02:15:37;19.80;56.20
13928;DHT22;7036;50.834;4.718;2022-11-15T02:18:07;19.80;56.30
13928;DHT22;7036;50.834;4.718;2022-11-15T02:23:44;19.80;56.30
13928;DHT22;7036;50.834;4.718;2022-11-15T02:31:37;19.80;56.30
13928;DHT22;7036;50.834;4.718;2022-11-15T02:34:08;19.80;56.30
13928;DHT22;7036;50.834;4.718;2022-11-15T02:36:41;19.80;56.40
13928;DHT22;7036;50.834;4.718;2022-11-15T02:39:13;19.80;56.40
13928;DHT22;7036;50.834;4.718;2022-11-15T02:41:47;19.80;56.30
13928;DHT22;7036;50.834;4.718;2022-11-15T02:44:23;19.80;56.30
13928;DHT22;7036;50.834;4.718;2022-11-15T02:49:29;19.80;56.40
13928;DHT22;7036;50.834;4.718;2022-11-15T02:51:56;19.80;56.50
13928;DHT22;7036;50.834;4.718;2022-11-15T02:54:25;19.80;56.40
13928;DHT22;7036;50.834;4.718;2022-11-15T02:56:53;19.80;56.50
13928;DHT22;7036;50.834;4.718;2022-11-15T03:04:44;19.70;56.50
13928;DHT22;7036;50.834;4.718;2022-11-15T03:07:12;19.70;56.60
13928;DHT22;7036;50.834;4.718;2022-11-15T03:10:32;19.70;56.50
13928;DHT22;7036;50.834;4.718;2022-11-15T03:12:13;19.70;56.50
13928;DHT22;7036;50.834;4.718;2022-11-15T03:15:21;19.70;56.50
13928;DHT22;7036;50.834;4.718;2022-11-15T03:17:13;19.70;56.50
13928;DHT22;7036;50.834;4.718;2022-11-15T03:19:43;19.70;56.50
13928;DHT22;7036;50.834;4.718;2022-11-15T03:22:08;19.70;56.50
13928;DHT22;7036;50.834;4.718;2022-11-15T03:24:36;19.80;56.60
13928;DHT22;7036;50.834;4.718;2022-11-15T03:27:02;19.70;56.50
13928;DHT22;7036;50.834;4.718;2022-11-15T03:29:31;19.70;56.50
13928;DHT22;7036;50.834;4.718;2022-11-15T03:31:59;19.70;56.70
13928;DHT22;7036;50.834;4.718;2022-11-15T03:34:44;19.70;56.70
13928;DHT22;7036;50.834;4.718;2022-11-15T03:37:11;19.70;56.40
13928;DHT22;7036;50.834;4.718;2022-11-15T03:39:37;19.70;56.60
13928;DHT22;7036;50.834;4.718;2022-11-15T03:42:22;19.70;56.80
13928;DHT22;7036;50.834;4.718;2022-11-15T03:47:30;19.60;56.70
13928;DHT22;7036;50.834;4.718;2022-11-15T03:49:59;19.70;56.70
13928;DHT22;7036;50.834;4.718;2022-11-15T03:52:25;19.70;56.80
13928;DHT22;7036;50.834;4.718;2022-11-15T03:54:54;19.70;56.90
13928;DHT22;7036;50.834;4.718;2022-11-15T03:57:21;19.70;56.90
13928;DHT22;7036;50.834;4.718;2022-11-15T03:59:49;19.70;56.90
13928;DHT22;7036;50.834;4.718;2022-11-15T04:02:17;19.60;56.80
13928;DHT22;7036;50.834;4.718;2022-11-15T04:04:44;19.70;56.80
13928;DHT22;7036;50.834;4.718;2022-11-15T04:07:11;19.70;56.80
13928;DHT22;7036;50.834;4.718;2022-11-15T04:09:39;19.70;56.90
13928;DHT22;7036;50.834;4.718;2022-11-15T04:12:24;19.60;56.80
13928;DHT22;7036;50.834;4.718;2022-11-15T04:15:00;19.60;56.80
13928;DHT22;7036;50.834;4.718;2022-11-15T04:17:42;19.60;56.80
13928;DHT22;7036;50.834;4.718;2022-11-15T04:20:13;19.70;57.40
13928;DHT22;7036;50.834;4.718;2022-11-15T04:22:57;19.60;56.80
13928;DHT22;7036;50.834;4.718;2022-11-15T04:25:42;19.60;56.80
13928;DHT22;7036;50.834;4.718;2022-11-15T04:28:10;19.60;57.00
13928;DHT22;7036;50.834;4.718;2022-11-15T04:30:37;19.60;57.00
13928;DHT22;7036;50.834;4.718;2022-11-15T04:33:05;19.60;56.90
13928;DHT22;7036;50.834;4.718;2022-11-15T04:35:32;19.60;57.00
13928;DHT22;7036;50.834;4.718;2022-11-15T04:37:59;19.60;56.90
13928;DHT22;7036;50.834;4.718;2022-11-15T04:40:26;19.60;57.00
13928;DHT22;7036;50.834;4.718;2022-11-15T04:42:54;19.60;57.00
13928;DHT22;7036;50.834;4.718;2022-11-15T04:45:23;19.60;57.00
13928;DHT22;7036;50.834;4.718;2022-11-15T04:47:50;19.60;57.00
13928;DHT22;7036;50.834;4.718;2022-11-15T04:50:18;19.60;57.00
13928;DHT22;7036;50.834;4.718;2022-11-15T04:52:53;19.60;57.00
13928;DHT22;7036;50.834;4.718;2022-11-15T04:55:19;19.60;56.90
13928;DHT22;7036;50.834;4.718;2022-11-15T04:57:46;19.60;56.90
13928;DHT22;7036;50.834;4.718;2022-11-15T05:00:15;19.50;57.00
13928;DHT22;7036;50.834;4.718;2022-11-15T05:02:42;19.60;57.10
13928;DHT22;7036;50.834;4.718;2022-11-15T05:05:27;19.50;57.00
13928;DHT22;7036;50.834;4.718;2022-11-15T05:07:55;19.60;57.50
13928;DHT22;7036;50.834;4.718;2022-11-15T05:10:22;19.50;57.00
13928;DHT22;7036;50.834;4.718;2022-11-15T05:12:50;19.50;57.10
13928;DHT22;7036;50.834;4.718;2022-11-15T05:15:17;19.50;57.00
13928;DHT22;7036;50.834;4.718;2022-11-15T05:17:45;19.50;57.20
13928;DHT22;7036;50.834;4.718;2022-11-15T05:20:14;19.50;57.20
13928;DHT22;7036;50.834;4.718;2022-11-15T05:22:42;19.50;57.20
13928;DHT22;7036;50.834;4.718;2022-11-15T05:25:10;19.50;57.90
13928;DHT22;7036;50.834;4.718;2022-11-15T05:27:38;19.50;57.30
13928;DHT22;7036;50.834;4.718;2022-11-15T05:30:06;19.50;57.30
13928;DHT22;7036;50.834;4.718;2022-11-15T05:32:33;19.50;57.30
13928;DHT22;7036;50.834;4.718;2022-11-15T05:35:01;19.50;57.10
13928;DHT22;7036;50.834;4.718;2022-11-15T05:37:28;19.50;57.10
13928;DHT22;7036;50.834;4.718;2022-11-15T05:39:56;19.50;57.30
13928;DHT22;7036;50.834;4.718;2022-11-15T05:42:24;19.50;57.30
13928;DHT22;7036;50.834;4.718;2022-11-15T05:44:52;19.50;57.30
13928;DHT22;7036;50.834;4.718;2022-11-15T05:47:20;19.50;57.30
13928;DHT22;7036;50.834;4.718;2022-11-15T05:49:47;19.50;57.20
13928;DHT22;7036;50.834;4.718;2022-11-15T05:52:15;19.50;57.30
13928;DHT22;7036;50.834;4.718;2022-11-15T05:54:43;19.50;57.30
13928;DHT22;7036;50.834;4.718;2022-11-15T05:57:11;19.50;57.30
13928;DHT22;7036;50.834;4.718;2022-11-15T05:59:39;19.50;57.30
13928;DHT22;7036;50.834;4.718;2022-11-15T06:02:06;19.40;57.20
13928;DHT22;7036;50.834;4.718;2022-11-15T06:04:34;19.50;57.30
13928;DHT22;7036;50.834;4.718;2022-11-15T06:07:02;19.50;57.30
13928;DHT22;7036;50.834;4.718;2022-11-15T06:09:29;19.40;57.20
13928;DHT22;7036;50.834;4.718;2022-11-15T06:11:58;19.50;57.30
13928;DHT22;7036;50.834;4.718;2022-11-15T06:14:25;19.50;57.10
13928;DHT22;7036;50.834;4.718;2022-11-15T06:16:53;19.60;57.00
13928;DHT22;7036;50.834;4.718;2022-11-15T06:19:21;19.60;56.90
13928;DHT22;7036;50.834;4.718;2022-11-15T06:21:48;19.70;56.90
13928;DHT22;7036;50.834;4.718;2022-11-15T06:24:16;19.90;56.90
13928;DHT22;7036;50.834;4.718;2022-11-15T06:26:44;19.90;56.70
13928;DHT22;7036;50.834;4.718;2022-11-15T06:29:12;20.00;56.70
13928;DHT22;7036;50.834;4.718;2022-11-15T06:31:40;20.00;56.60
13928;DHT22;7036;50.834;4.718;2022-11-15T06:34:08;20.10;56.50
13928;DHT22;7036;50.834;4.718;2022-11-15T06:36:36;20.10;56.50
13928;DHT22;7036;50.834;4.718;2022-11-15T06:39:04;20.20;56.60
13928;DHT22;7036;50.834;4.718;2022-11-15T06:41:34;20.20;57.20
13928;DHT22;7036;50.834;4.718;2022-11-15T06:44:01;20.20;56.40
13928;DHT22;7036;50.834;4.718;2022-11-15T06:46:29;20.20;56.30
13928;DHT22;7036;50.834;4.718;2022-11-15T06:48:58;20.30;56.30
13928;DHT22;7036;50.834;4.718;2022-11-15T06:51:25;20.30;56.20
13928;DHT22;7036;50.834;4.718;2022-11-15T06:53:53;20.30;56.20
13928;DHT22;7036;50.834;4.718;2022-11-15T06:56:21;20.30;56.20
13928;DHT22;7036;50.834;4.718;2022-11-15T06:58:49;20.30;56.20
13928;DHT22;7036;50.834;4.718;2022-11-15T07:01:17;20.20;56.20
13928;DHT22;7036;50.834;4.718;2022-11-15T07:03:45;20.20;56.40
13928;DHT22;7036;50.834;4.718;2022-11-15T07:06:13;20.20;56.30
13928;DHT22;7036;50.834;4.718;2022-11-15T07:08:40;20.20;56.40
13928;DHT22;7036;50.834;4.718;2022-11-15T07:11:07;20.20;56.40
13928;DHT22;7036;50.834;4.718;2022-11-15T07:13:35;20.20;56.60
13928;DHT22;7036;50.834;4.718;2022-11-15T07:16:03;20.20;56.60
13928;DHT22;7036;50.834;4.718;2022-11-15T07:18:31;20.10;56.50
13928;DHT22;7036;50.834;4.718;2022-11-15T07:21:02;20.10;56.40
13928;DHT22;7036;50.834;4.718;2022-11-15T07:23:28;20.10;56.40
13928;DHT22;7036;50.834;4.718;2022-11-15T07:25:57;20.10;56.60
13928;DHT22;7036;50.834;4.718;2022-11-15T07:28:25;20.20;56.60
13928;DHT22;7036;50.834;4.718;2022-11-15T07:30:52;20.10;57.00
13928;DHT22;7036;50.834;4.718;2022-11-15T07:33:22;20.10;56.50
13928;DHT22;7036;50.834;4.718;2022-11-15T07:35:49;20.10;56.40
13928;DHT22;7036;50.834;4.718;2022-11-15T07:38:17;20.10;56.40
13928;DHT22;7036;50.834;4.718;2022-11-15T07:40:46;20.10;56.20
13928;DHT22;7036;50.834;4.718;2022-11-15T07:43:13;20.10;56.20
13928;DHT22;7036;50.834;4.718;2022-11-15T07:45:45;20.10;56.30
13928;DHT22;7036;50.834;4.718;2022-11-15T07:48:11;20.10;56.30
13928;DHT22;7036;50.834;4.718;2022-11-15T07:50:42;20.00;56.40
13928;DHT22;7036;50.834;4.718;2022-11-15T07:53:09;20.10;56.40
13928;DHT22;7036;50.834;4.718;2022-11-15T07:55:37;20.10;56.30
13928;DHT22;7036;50.834;4.718;2022-11-15T07:58:06;20.00;56.40
13928;DHT22;7036;50.834;4.718;2022-11-15T08:00:33;20.00;56.40
13928;DHT22;7036;50.834;4.718;2022-11-15T08:03:06;20.00;56.40
13928;DHT22;7036;50.834;4.718;2022-11-15T08:05:32;20.00;56.30
13928;DHT22;7036;50.834;4.718;2022-11-15T08:07:59;20.10;56.40
13928;DHT22;7036;50.834;4.718;2022-11-15T08:10:27;20.10;56.30
13928;DHT22;7036;50.834;4.718;2022-11-15T08:13:00;20.10;56.30
13928;DHT22;7036;50.834;4.718;2022-11-15T08:15:25;20.10;56.30
13928;DHT22;7036;50.834;4.718;2022-11-15T08:17:58;20.00;56.40
13928;DHT22;7036;50.834;4.718;2022-11-15T08:20:21;20.00;56.50
13928;DHT22;7036;50.834;4.718;2022-11-15T08:22:49;20.00;56.70
13928;DHT22;7036;50.834;4.718;2022-11-15T08:25:17;20.00;56.80
13928;DHT22;7036;50.834;4.718;2022-11-15T08:27:45;20.00;56.70
13928;DHT22;7036;50.834;4.718;2022-11-15T08:30:13;20.00;56.80
13928;DHT22;7036;50.834;4.718;2022-11-15T08:32:41;20.10;56.70
13928;DHT22;7036;50.834;4.718;2022-11-15T08:35:08;20.00;56.70
13928;DHT22;7036;50.834;4.718;2022-11-15T08:37:37;20.00;56.80
13928;DHT22;7036;50.834;4.718;2022-11-15T08:40:11;20.00;56.60
13928;DHT22;7036;50.834;4.718;2022-11-15T08:42:39;20.00;56.70
13928;DHT22;7036;50.834;4.718;2022-11-15T08:45:08;20.00;56.70
13928;DHT22;7036;50.834;4.718;2022-11-15T08:47:35;20.00;56.60
13928;DHT22;7036;50.834;4.718;2022-11-15T08:50:04;20.00;56.80
13928;DHT22;7036;50.834;4.718;2022-11-15T08:52:31;20.00;56.90
13928;DHT22;7036;50.834;4.718;2022-11-15T08:54:57;20.00;56.80
13928;DHT22;7036;50.834;4.718;2022-11-15T08:57:27;20.00;57.00
13928;DHT22;7036;50.834;4.718;2022-11-15T08:59:52;20.00;56.90
13928;DHT22;7036;50.834;4.718;2022-11-15T09:02:19;19.90;56.90
13928;DHT22;7036;50.834;4.718;2022-11-15T09:04:47;19.90;57.00
13928;DHT22;7036;50.834;4.718;2022-11-15T09:07:13;19.90;57.00
13928;DHT22;7036;50.834;4.718;2022-11-15T09:09:41;20.00;57.00
13928;DHT22;7036;50.834;4.718;2022-11-15T09:12:08;19.90;56.80
13928;DHT22;7036;50.834;4.718;2022-11-15T09:14:35;20.00;56.90
13928;DHT22;7036;50.834;4.718;2022-11-15T09:17:02;19.90;56.80
13928;DHT22;7036;50.834;4.718;2022-11-15T09:19:30;19.90;56.90
13928;DHT22;7036;50.834;4.718;2022-11-15T09:21:58;19.90;56.90
13928;DHT22;7036;50.834;4.718;2022-11-15T09:24:25;19.90;56.90
13928;DHT22;7036;50.834;4.718;2022-11-15T09:26:52;20.00;56.90
13928;DHT22;7036;50.834;4.718;2022-11-15T09:29:19;19.90;57.00
13928;DHT22;7036;50.834;4.718;2022-11-15T09:31:47;19.90;57.20
13928;DHT22;7036;50.834;4.718;2022-11-15T09:34:15;19.90;57.20
13928;DHT22;7036;50.834;4.718;2022-11-15T09:36:44;19.90;57.20
13928;DHT22;7036;50.834;4.718;2022-11-15T09:39:11;19.90;57.00
13928;DHT22;7036;50.834;4.718;2022-11-15T09:41:58;20.00;57.10
13928;DHT22;7036;50.834;4.718;2022-11-15T09:46:58;20.00;57.20
13928;DHT22;7036;50.834;4.718;2022-11-15T09:49:20;20.00;57.20
13928;DHT22;7036;50.834;4.718;2022-11-15T09:51:52;20.00;57.30
13928;DHT22;7036;50.834;4.718;2022-11-15T09:56:50;20.00;57.20
13928;DHT22;7036;50.834;4.718;2022-11-15T10:02:18;20.00;57.00
13928;DHT22;7036;50.834;4.718;2022-11-15T10:04:39;20.00;57.00
13928;DHT22;7036;50.834;4.718;2022-11-15T10:07:22;20.00;57.10
13928;DHT22;7036;50.834;4.718;2022-11-15T10:12:32;20.00;56.90
13928;DHT22;7036;50.834;4.718;2022-11-15T10:15:03;20.00;56.80
13928;DHT22;7036;50.834;4.718;2022-11-15T10:20:25;20.00;56.80
13928;DHT22;7036;50.834;4.718;2022-11-15T10:22:51;20.00;56.70
13928;DHT22;7036;50.834;4.718;2022-11-15T10:25:20;20.00;56.80
13928;DHT22;7036;50.834;4.718;2022-11-15T10:27:53;20.00;56.70
13928;DHT22;7036;50.834;4.718;2022-11-15T10:30:13;20.00;56.70
13928;DHT22;7036;50.834;4.718;2022-11-15T10:32:40;20.00;56.70
13928;DHT22;7036;50.834;4.718;2022-11-15T10:35:25;20.00;56.70
13928;DHT22;7036;50.834;4.718;2022-11-15T10:37:50;20.00;56.60
13928;DHT22;7036;50.834;4.718;2022-11-15T10:40:21;20.00;56.60
13928;DHT22;7036;50.834;4.718;2022-11-15T10:42:47;20.00;56.50
13928;DHT22;7036;50.834;4.718;2022-11-15T10:45:28;20.00;56.60
13928;DHT22;7036;50.834;4.718;2022-11-15T10:47:54;20.00;56.50
13928;DHT22;7036;50.834;4.718;2022-11-15T10:50:29;19.90;56.60
13928;DHT22;7036;50.834;4.718;2022-11-15T10:52:54;20.00;56.70
13928;DHT22;7036;50.834;4.718;2022-11-15T10:55:24;20.00;56.60
13928;DHT22;7036;50.834;4.718;2022-11-15T10:57:54;20.00;56.60
13928;DHT22;7036;50.834;4.718;2022-11-15T11:05:39;20.10;56.50
13928;DHT22;7036;50.834;4.718;2022-11-15T11:10:38;20.10;56.30
13928;DHT22;7036;50.834;4.718;2022-11-15T11:13:14;20.20;56.30
13928;DHT22;7036;50.834;4.718;2022-11-15T11:15:43;20.20;56.30
13928;DHT22;7036;50.834;4.718;2022-11-15T11:18:12;20.20;56.10
13928;DHT22;7036;50.834;4.718;2022-11-15T11:20:44;20.30;56.20
13928;DHT22;7036;50.834;4.718;2022-11-15T11:26:01;20.30;56.10
13928;DHT22;7036;50.834;4.718;2022-11-15T11:28:47;20.30;56.00
13928;DHT22;7036;50.834;4.718;2022-11-15T11:36:21;20.40;56.10
13928;DHT22;7036;50.834;4.718;2022-11-15T11:38:51;20.40;56.30
13928;DHT22;7036;50.834;4.718;2022-11-15T11:52:29;20.50;57.00
13928;DHT22;7036;50.834;4.718;2022-11-15T11:55:23;20.50;57.00
13928;DHT22;7036;50.834;4.718;2022-11-15T12:00:55;20.50;57.20
13928;DHT22;7036;50.834;4.718;2022-11-15T12:03:46;20.50;57.10
13928;DHT22;7036;50.834;4.718;2022-11-15T12:06:47;20.50;57.20
13928;DHT22;7036;50.834;4.718;2022-11-15T12:11:50;20.60;57.40
13928;DHT22;7036;50.834;4.718;2022-11-15T12:14:38;20.60;57.50
13928;DHT22;7036;50.834;4.718;2022-11-15T12:16:59;20.60;57.50
13928;DHT22;7036;50.834;4.718;2022-11-15T12:19:28;20.60;57.50
13928;DHT22;7036;50.834;4.718;2022-11-15T12:22:02;20.60;57.60
13928;DHT22;7036;50.834;4.718;2022-11-15T12:24:27;20.60;57.40
13928;DHT22;7036;50.834;4.718;2022-11-15T12:26:57;20.70;57.60
13928;DHT22;7036;50.834;4.718;2022-11-15T12:29:25;20.70;57.40
13928;DHT22;7036;50.834;4.718;2022-11-15T12:31:52;20.70;57.40
13928;DHT22;7036;50.834;4.718;2022-11-15T12:36:50;20.70;57.30
13928;DHT22;7036;50.834;4.718;2022-11-15T12:39:18;20.70;57.40
13928;DHT22;7036;50.834;4.718;2022-11-15T13:02:41;20.70;57.20
13928;DHT22;7036;50.834;4.718;2022-11-15T13:17:52;20.70;56.90
13928;DHT22;7036;50.834;4.718;2022-11-15T13:20:18;20.80;57.00
13928;DHT22;7036;50.834;4.718;2022-11-15T13:22:47;20.80;57.00
13928;DHT22;7036;50.834;4.718;2022-11-15T13:27:53;20.70;56.90
13928;DHT22;7036;50.834;4.718;2022-11-15T13:30:22;20.70;56.90
13928;DHT22;7036;50.834;4.718;2022-11-15T13:32:49;20.70;56.90
13928;DHT22;7036;50.834;4.718;2022-11-15T13:35:20;20.60;56.90
13928;DHT22;7036;50.834;4.718;2022-11-15T13:37:46;20.60;56.80
13928;DHT22;7036;50.834;4.718;2022-11-15T13:40:27;20.60;56.90
13928;DHT22;7036;50.834;4.718;2022-11-15T13:42:53;20.60;56.90
13928;DHT22;7036;50.834;4.718;2022-11-15T13:45:20;20.60;56.90
13928;DHT22;7036;50.834;4.718;2022-11-15T13:47:51;20.50;56.90
13928;DHT22;7036;50.834;4.718;2022-11-15T13:50:17;20.60;56.90
13928;DHT22;7036;50.834;4.718;2022-11-15T13:52:45;20.50;57.00
13928;DHT22;7036;50.834;4.718;2022-11-15T13:55:14;20.50;57.00
13928;DHT22;7036;50.834;4.718;2022-11-15T13:57:56;20.50;56.90
13928;DHT22;7036;50.834;4.718;2022-11-15T14:00:28;20.50;57.60
13928;DHT22;7036;50.834;4.718;2022-11-15T14:02:53;20.50;56.90
13928;DHT22;7036;50.834;4.718;2022-11-15T14:05:21;20.50;57.10
13928;DHT22;7036;50.834;4.718;2022-11-15T14:07:55;20.40;57.80
13928;DHT22;7036;50.834;4.718;2022-11-15T14:10:31;20.40;57.00
13928;DHT22;7036;50.834;4.718;2022-11-15T14:12:54;20.40;57.00
13928;DHT22;7036;50.834;4.718;2022-11-15T14:15:32;20.40;57.30
13928;DHT22;7036;50.834;4.718;2022-11-15T14:17:57;20.40;57.20
13928;DHT22;7036;50.834;4.718;2022-11-15T14:22:56;20.30;57.50
13928;DHT22;7036;50.834;4.718;2022-11-15T14:25:25;20.30;57.60
13928;DHT22;7036;50.834;4.718;2022-11-15T14:30:54;20.30;57.90
13928;DHT22;7036;50.834;4.718;2022-11-15T14:33:27;20.30;58.00
13928;DHT22;7036;50.834;4.718;2022-11-15T14:35:49;20.30;57.90
13928;DHT22;7036;50.834;4.718;2022-11-15T14:38:16;20.30;57.80
13928;DHT22;7036;50.834;4.718;2022-11-15T14:40:44;20.40;57.90
13928;DHT22;7036;50.834;4.718;2022-11-15T14:43:12;20.40;57.80
13928;DHT22;7036;50.834;4.718;2022-11-15T14:45:40;20.40;57.80
13928;DHT22;7036;50.834;4.718;2022-11-15T14:48:07;20.40;57.80
13928;DHT22;7036;50.834;4.718;2022-11-15T14:50:35;20.40;57.70
13928;DHT22;7036;50.834;4.718;2022-11-15T14:53:03;20.40;57.90
13928;DHT22;7036;50.834;4.718;2022-11-15T14:55:31;20.40;57.80
13928;DHT22;7036;50.834;4.718;2022-11-15T14:57:57;20.40;57.90
13928;DHT22;7036;50.834;4.718;2022-11-15T15:00:25;20.40;57.90
13928;DHT22;7036;50.834;4.718;2022-11-15T15:02:53;20.50;57.90
13928;DHT22;7036;50.834;4.718;2022-11-15T15:05:23;20.50;57.90
13928;DHT22;7036;50.834;4.718;2022-11-15T15:07:49;20.50;57.80
13928;DHT22;7036;50.834;4.718;2022-11-15T15:10:18;20.50;58.00
13928;DHT22;7036;50.834;4.718;2022-11-15T15:12:44;20.50;57.80
13928;DHT22;7036;50.834;4.718;2022-11-15T15:15:15;20.50;57.80
13928;DHT22;7036;50.834;4.718;2022-11-15T15:17:41;20.50;57.80
13928;DHT22;7036;50.834;4.718;2022-11-15T15:20:09;20.50;57.80
13928;DHT22;7036;50.834;4.718;2022-11-15T15:22:36;20.60;57.80
13928;DHT22;7036;50.834;4.718;2022-11-15T15:25:14;20.60;57.80
13928;DHT22;7036;50.834;4.718;2022-11-15T15:27:36;20.60;57.70
13928;DHT22;7036;50.834;4.718;2022-11-15T15:30:03;20.60;57.70
13928;DHT22;7036;50.834;4.718;2022-11-15T15:32:31;20.60;57.60
13928;DHT22;7036;50.834;4.718;2022-11-15T15:34:58;20.60;57.60
13928;DHT22;7036;50.834;4.718;2022-11-15T15:37:25;20.60;57.50
13928;DHT22;7036;50.834;4.718;2022-11-15T15:39:55;20.60;57.50
13928;DHT22;7036;50.834;4.718;2022-11-15T15:42:22;20.60;57.40
13928;DHT22;7036;50.834;4.718;2022-11-15T15:44:49;20.60;57.40
13928;DHT22;7036;50.834;4.718;2022-11-15T15:47:20;20.60;57.60
13928;DHT22;7036;50.834;4.718;2022-11-15T15:49:47;20.60;57.50
13928;DHT22;7036;50.834;4.718;2022-11-15T15:52:14;20.60;57.60
13928;DHT22;7036;50.834;4.718;2022-11-15T15:54:41;20.60;57.50
13928;DHT22;7036;50.834;4.718;2022-11-15T15:57:10;20.60;57.40
13928;DHT22;7036;50.834;4.718;2022-11-15T15:59:36;20.60;57.40
13928;DHT22;7036;50.834;4.718;2022-11-15T16:02:04;20.60;57.50
13928;DHT22;7036;50.834;4.718;2022-11-15T16:04:31;20.60;57.40
13928;DHT22;7036;50.834;4.718;2022-11-15T16:06:59;20.60;58.20
13928;DHT22;7036;50.834;4.718;2022-11-15T16:09:27;20.60;57.50
13928;DHT22;7036;50.834;4.718;2022-11-15T16:12:12;20.60;57.40
13928;DHT22;7036;50.834;4.718;2022-11-15T16:14:40;20.60;57.50
13928;DHT22;7036;50.834;4.718;2022-11-15T16:17:15;20.60;58.30
13928;DHT22;7036;50.834;4.718;2022-11-15T16:19:41;20.60;57.50
13928;DHT22;7036;50.834;4.718;2022-11-15T16:22:09;20.60;57.70
13928;DHT22;7036;50.834;4.718;2022-11-15T16:24:37;20.60;57.70
13928;DHT22;7036;50.834;4.718;2022-11-15T16:27:04;20.60;57.70
13928;DHT22;7036;50.834;4.718;2022-11-15T16:29:31;20.60;57.50
13928;DHT22;7036;50.834;4.718;2022-11-15T16:31:59;20.70;57.60
13928;DHT22;7036;50.834;4.718;2022-11-15T16:34:26;20.70;57.50
13928;DHT22;7036;50.834;4.718;2022-11-15T16:36:54;20.70;57.70
13928;DHT22;7036;50.834;4.718;2022-11-15T16:39:22;20.70;57.70
13928;DHT22;7036;50.834;4.718;2022-11-15T16:41:50;20.70;57.70
13928;DHT22;7036;50.834;4.718;2022-11-15T16:44:18;20.70;57.70
13928;DHT22;7036;50.834;4.718;2022-11-15T16:46:48;20.70;57.60
13928;DHT22;7036;50.834;4.718;2022-11-15T16:49:15;20.70;57.50
13928;DHT22;7036;50.834;4.718;2022-11-15T16:51:49;20.70;57.60
13928;DHT22;7036;50.834;4.718;2022-11-15T16:54:16;20.70;57.50
13928;DHT22;7036;50.834;4.718;2022-11-15T16:56:45;20.70;57.60
13928;DHT22;7036;50.834;4.718;2022-11-15T16:59:15;20.70;57.50
13928;DHT22;7036;50.834;4.718;2022-11-15T17:01:41;20.70;57.50
13928;DHT22;7036;50.834;4.718;2022-11-15T17:04:08;20.70;57.50
13928;DHT22;7036;50.834;4.718;2022-11-15T17:06:41;20.70;57.60
13928;DHT22;7036;50.834;4.718;2022-11-15T17:09:17;20.80;57.50
13928;DHT22;7036;50.834;4.718;2022-11-15T17:11:44;20.80;57.60
13928;DHT22;7036;50.834;4.718;2022-11-15T17:14:11;20.70;57.40
13928;DHT22;7036;50.834;4.718;2022-11-15T17:16:38;20.70;57.60
13928;DHT22;7036;50.834;4.718;2022-11-15T17:19:16;20.80;57.70
13928;DHT22;7036;50.834;4.718;2022-11-15T17:21:34;20.80;57.60
13928;DHT22;7036;50.834;4.718;2022-11-15T17:24:02;20.80;57.60
13928;DHT22;7036;50.834;4.718;2022-11-15T17:26:30;20.80;57.60
13928;DHT22;7036;50.834;4.718;2022-11-15T17:28:58;20.80;57.50
13928;DHT22;7036;50.834;4.718;2022-11-15T17:31:26;20.80;57.60
13928;DHT22;7036;50.834;4.718;2022-11-15T17:33:54;20.80;57.40
13928;DHT22;7036;50.834;4.718;2022-11-15T17:36:21;20.80;57.40
13928;DHT22;7036;50.834;4.718;2022-11-15T17:38:48;20.80;57.40
13928;DHT22;7036;50.834;4.718;2022-11-15T17:41:16;20.80;57.50
13928;DHT22;7036;50.834;4.718;2022-11-15T17:43:44;20.80;58.20
13928;DHT22;7036;50.834;4.718;2022-11-15T17:46:17;20.80;58.20